createdAt,value
2022-10-15T00:00:27.803Z,17.67
2022-10-15T00:03:30.306Z,11.57
2022-10-15T00:06:33.231Z,11.27
2022-10-15T00:09:35.723Z,9.40
2022-10-15T00:12:40.281Z,10.43
2022-10-15T00:15:43.162Z,12.50
2022-10-15T00:18:46.715Z,8.17
2022-10-15T00:21:49.268Z,13.17
2022-10-15T00:24:51.816Z,11.00
2022-10-15T00:27:55.629Z,11.00
2022-10-15T00:31:05.946Z,9.63
2022-10-15T00:34:08.690Z,13.83
2022-10-15T00:37:11.270Z,10.57
2022-10-15T00:40:15.524Z,11.43
2022-10-15T00:43:34.238Z,9.80
2022-10-15T00:46:41.074Z,12.03
2022-10-15T00:49:48.081Z,11.60
2022-10-15T00:53:01.234Z,11.10
2022-10-15T00:56:04.124Z,11.73
2022-10-15T00:59:08.988Z,10.97
2022-10-15T01:02:11.895Z,14.93
2022-10-15T01:05:16.943Z,15.13
2022-10-15T01:08:19.612Z,12.20
2022-10-15T01:11:36.784Z,12.00
2022-10-15T01:14:51.101Z,15.37
2022-10-15T01:17:58.211Z,18.13
2022-10-15T01:21:11.026Z,16.30
2022-10-15T01:24:38.719Z,17.87
2022-10-15T01:27:44.516Z,15.03
2022-10-15T01:30:52.250Z,18.87
2022-10-15T01:34:03.059Z,20.43
2022-10-15T01:37:10.940Z,17.20
2022-10-15T01:40:18.855Z,17.60
2022-10-15T01:43:27.475Z,17.73
2022-10-15T01:46:38.164Z,14.90
2022-10-15T01:49:44.185Z,20.17
2022-10-15T01:52:47.195Z,21.10
2022-10-15T01:55:50.255Z,17.07
2022-10-15T01:58:56.261Z,19.07
2022-10-15T02:02:00.139Z,21.70
2022-10-15T02:05:03.204Z,18.87
2022-10-15T02:08:14.999Z,19.17
2022-10-15T02:11:18.971Z,18.70
2022-10-15T02:14:30.481Z,19.10
2022-10-15T02:17:40.200Z,20.60
2022-10-15T02:20:49.706Z,21.53
2022-10-15T02:23:54.138Z,23.57
2022-10-15T02:27:00.102Z,22.43
2022-10-15T02:30:04.755Z,23.07
2022-10-15T02:33:10.044Z,29.57
2022-10-15T02:36:13.382Z,34.23
2022-10-15T02:39:19.358Z,24.10
2022-10-15T02:42:22.470Z,26.00
2022-10-15T02:45:25.049Z,24.67
2022-10-15T02:48:28.873Z,34.43
2022-10-15T02:51:33.335Z,28.90
2022-10-15T02:54:35.819Z,26.90
2022-10-15T02:57:38.293Z,27.53
2022-10-15T03:00:40.842Z,27.00
2022-10-15T03:03:44.723Z,26.57
2022-10-15T03:06:47.268Z,27.53
2022-10-15T03:09:49.817Z,31.00
2022-10-15T03:12:52.285Z,28.33
2022-10-15T03:15:54.983Z,32.67
2022-10-15T03:18:58.824Z,28.60
2022-10-15T03:22:01.289Z,28.90
2022-10-15T03:25:04.162Z,32.30
2022-10-15T03:28:06.658Z,30.90
2022-10-15T03:31:09.141Z,30.53
2022-10-15T03:34:12.983Z,27.57
2022-10-15T03:37:15.481Z,32.00
2022-10-15T03:40:18.173Z,30.33
2022-10-15T03:43:20.648Z,29.03
2022-10-15T03:46:23.171Z,28.00
2022-10-15T03:49:26.991Z,34.80
2022-10-15T03:52:29.683Z,33.90
2022-10-15T03:55:32.339Z,32.30
2022-10-15T03:58:34.860Z,33.20
2022-10-15T04:01:37.395Z,28.67
2022-10-15T04:04:41.367Z,28.80
2022-10-15T04:07:43.854Z,27.33
2022-10-15T04:10:46.805Z,28.57
2022-10-15T04:13:50.919Z,29.87
2022-10-15T04:16:53.405Z,31.00
2022-10-15T04:19:57.217Z,26.70
2022-10-15T04:22:59.697Z,21.37
2022-10-15T04:26:02.380Z,23.77
2022-10-15T04:29:05.382Z,25.17
2022-10-15T04:32:08.001Z,30.13
2022-10-15T04:35:11.890Z,23.87
2022-10-15T04:38:14.371Z,28.33
2022-10-15T04:41:16.912Z,27.70
2022-10-15T04:44:19.664Z,29.03
2022-10-15T04:47:22.398Z,23.43
2022-10-15T04:50:26.400Z,32.30
2022-10-15T04:53:28.915Z,25.77
2022-10-15T04:56:31.454Z,24.30
2022-10-15T04:59:33.946Z,34.33
2022-10-15T05:02:36.500Z,26.40
2022-10-15T05:05:43.378Z,29.93
2022-10-15T05:08:47.196Z,29.03
2022-10-15T05:11:49.735Z,23.83
2022-10-15T05:14:52.226Z,29.60
2022-10-15T05:17:54.905Z,24.30
2022-10-15T05:21:02.017Z,24.63
2022-10-15T05:24:05.480Z,26.67
2022-10-15T05:27:07.971Z,28.67
2022-10-15T05:30:11.452Z,34.87
2022-10-15T05:33:13.925Z,30.00
2022-10-15T05:36:20.089Z,32.30
2022-10-15T05:39:22.860Z,34.93
2022-10-15T05:42:25.321Z,36.00
2022-10-15T05:45:27.847Z,38.30
2022-10-15T05:48:30.437Z,75.87
2022-10-15T05:51:34.285Z,33.57
2022-10-15T05:54:36.769Z,30.40
2022-10-15T05:57:39.248Z,29.50
2022-10-15T06:00:41.738Z,31.00
2022-10-15T06:03:44.779Z,30.60
2022-10-15T06:06:48.599Z,33.47
2022-10-15T06:09:51.708Z,27.70
2022-10-15T06:12:54.178Z,33.87
2022-10-15T06:15:56.646Z,33.87
2022-10-15T06:18:59.125Z,33.30
2022-10-15T06:22:02.924Z,38.53
2022-10-15T06:25:06.242Z,36.10
2022-10-15T06:28:09.551Z,39.83
2022-10-15T06:31:12.341Z,42.93
2022-10-15T06:34:14.811Z,39.17
2022-10-15T06:37:18.644Z,39.10
2022-10-15T06:40:21.138Z,34.70
2022-10-15T06:43:23.641Z,35.67
2022-10-15T06:46:26.117Z,31.33
2022-10-15T06:49:28.592Z,32.87
2022-10-15T06:52:33.171Z,34.67
2022-10-15T06:55:36.295Z,32.47
2022-10-15T06:58:38.796Z,32.07
2022-10-15T07:01:42.316Z,39.13
2022-10-15T07:04:44.978Z,33.97
2022-10-15T07:07:53.477Z,40.07
2022-10-15T07:10:55.950Z,34.83
2022-10-15T07:13:58.444Z,36.67
2022-10-15T07:17:00.943Z,37.47
2022-10-15T07:20:03.506Z,37.27
2022-10-15T07:23:07.334Z,35.17
2022-10-15T07:26:09.820Z,35.53
2022-10-15T07:29:12.299Z,37.63
2022-10-15T07:32:15.013Z,33.67
2022-10-15T07:35:17.578Z,36.30
2022-10-15T07:38:21.402Z,38.97
2022-10-15T07:41:23.987Z,38.90
2022-10-15T07:44:26.486Z,38.13
2022-10-15T07:47:29.136Z,40.00
2022-10-15T07:50:34.269Z,39.57
2022-10-15T07:53:40.061Z,38.47
2022-10-15T07:56:42.548Z,42.33
2022-10-15T07:59:45.091Z,35.07
2022-10-15T08:02:47.656Z,40.07
2022-10-15T08:05:53.041Z,34.93
2022-10-15T08:08:56.857Z,35.87
2022-10-15T08:11:59.339Z,40.27
2022-10-15T08:15:01.876Z,59.83
2022-10-15T08:18:04.554Z,43.67
2022-10-15T08:21:08.086Z,56.47
2022-10-15T08:24:11.938Z,42.30
2022-10-15T08:27:14.410Z,32.47
2022-10-15T08:30:17.160Z,34.97
2022-10-15T08:33:19.667Z,38.20
2022-10-15T08:36:22.140Z,32.70
2022-10-15T08:39:26.613Z,34.70
2022-10-15T08:42:33.294Z,42.03
2022-10-15T08:45:44.949Z,32.20
2022-10-15T08:48:50.763Z,28.07
2022-10-15T08:51:57.991Z,29.63
2022-10-15T08:55:03.234Z,30.13
2022-10-15T08:58:15.011Z,32.23
2022-10-15T09:01:24.725Z,30.30
2022-10-15T09:04:32.720Z,24.90
2022-10-15T09:07:42.709Z,28.03
2022-10-15T09:10:50.937Z,27.33
2022-10-15T09:13:53.859Z,28.73
2022-10-15T09:16:56.397Z,26.87
2022-10-15T09:19:59.646Z,23.00
2022-10-15T09:23:02.435Z,24.20
2022-10-15T09:26:14.075Z,23.77
2022-10-15T09:29:22.360Z,22.17
2022-10-15T09:32:31.598Z,24.27
2022-10-15T09:35:40.285Z,21.33
2022-10-15T09:38:55.042Z,19.40
2022-10-15T09:42:09.387Z,20.17
2022-10-15T09:45:15.727Z,20.43
2022-10-15T09:48:20.649Z,22.70
2022-10-15T09:51:30.484Z,24.93
2022-10-15T09:54:43.879Z,25.83
2022-10-15T09:57:52.450Z,21.80
2022-10-15T10:01:00.868Z,26.37
2022-10-15T10:04:18.305Z,20.40
2022-10-15T10:07:31.222Z,17.80
2022-10-15T10:10:35.882Z,19.57
2022-10-15T10:13:45.550Z,18.80
2022-10-15T10:17:15.017Z,21.93
2022-10-15T10:20:20.644Z,16.90
2022-10-15T10:23:25.287Z,17.10
2022-10-15T10:26:27.861Z,19.03
2022-10-15T10:29:37.452Z,19.03
2022-10-15T10:32:40.864Z,16.87
2022-10-15T10:35:46.750Z,16.27
2022-10-15T10:38:58.827Z,19.40
2022-10-15T10:42:03.366Z,13.90
2022-10-15T10:45:19.592Z,21.35
2022-10-15T10:48:24.793Z,11.60
2022-10-15T10:51:30.650Z,10.80
2022-10-15T10:54:34.422Z,13.65
2022-10-15T10:57:44.986Z,13.60
2022-10-15T11:00:52.226Z,16.48
2022-10-15T11:03:54.817Z,14.70
2022-10-15T11:07:04.308Z,27.23
2022-10-15T11:10:17.565Z,12.02
2022-10-15T11:13:47.416Z,10.88
2022-10-15T11:16:58.964Z,12.15
2022-10-15T11:20:25.666Z,12.98
2022-10-15T11:23:46.683Z,10.27
2022-10-15T11:27:10.503Z,18.33
2022-10-15T11:30:31.211Z,16.58
2022-10-15T11:33:49.989Z,16.45
2022-10-15T11:37:09.928Z,14.52
2022-10-15T11:40:21.460Z,10.20
2022-10-15T11:43:42.459Z,13.85
2022-10-15T11:46:51.861Z,8.13
2022-10-15T11:50:14.310Z,9.50
2022-10-15T11:53:46.506Z,14.80
2022-10-15T11:56:51.865Z,6.68
2022-10-15T11:59:59.478Z,7.10
2022-10-15T12:03:08.175Z,8.15
2022-10-15T12:06:16.879Z,8.90
2022-10-15T12:09:25.865Z,7.63
2022-10-15T12:12:42.048Z,9.65
2022-10-15T12:15:51.681Z,8.80
2022-10-15T12:19:02.587Z,4.88
2022-10-15T12:22:11.295Z,7.10
2022-10-15T12:25:41.597Z,5.45
2022-10-15T12:28:51.354Z,8.52
2022-10-15T12:31:56.245Z,4.55
2022-10-15T12:35:01.691Z,7.80
2022-10-15T12:38:22.509Z,8.20
2022-10-15T12:41:36.504Z,8.43
2022-10-15T12:44:39.704Z,6.03
2022-10-15T12:47:49.757Z,8.52
2022-10-15T12:51:39.382Z,6.85
2022-10-15T12:54:45.105Z,4.03
2022-10-15T12:58:00.389Z,7.20
2022-10-15T13:01:07.952Z,6.93
2022-10-15T13:04:11.703Z,3.70
2022-10-15T13:07:15.750Z,4.60
2022-10-15T13:10:24.494Z,2.75
2022-10-15T13:13:30.057Z,3.50
2022-10-15T13:16:32.854Z,5.00
2022-10-15T13:19:40.211Z,4.63
2022-10-15T13:22:42.718Z,4.97
2022-10-15T13:25:46.573Z,11.00
2022-10-15T13:28:50.643Z,15.40
2022-10-15T13:31:56.013Z,6.07
2022-10-15T13:34:59.647Z,6.30
2022-10-15T14:05:29.753Z,9.97
2022-10-15T14:08:35.573Z,6.20
2022-10-15T14:11:39.409Z,9.20
2022-10-15T14:14:43.897Z,10.17
2022-10-15T14:17:52.226Z,9.87
2022-10-15T14:20:56.134Z,13.67
2022-10-15T14:24:07.183Z,13.80
2022-10-15T14:27:16.444Z,13.33
2022-10-15T14:30:26.791Z,9.77
2022-10-15T14:33:42.506Z,10.33
2022-10-15T14:36:46.330Z,13.57
2022-10-15T14:39:49.479Z,12.90
2022-10-15T14:43:04.138Z,15.73
2022-10-15T14:46:09.145Z,17.80
2022-10-15T14:49:31.341Z,19.43
2022-10-15T14:52:38.054Z,13.37
2022-10-15T14:55:44.913Z,18.27
2022-10-15T14:58:51.997Z,16.97
2022-10-15T15:01:59.944Z,13.90
2022-10-15T15:05:09.340Z,15.90
2022-10-15T15:08:13.351Z,13.90
2022-10-15T15:11:20.330Z,15.00
2022-10-15T15:14:25.955Z,14.57
2022-10-15T15:17:30.864Z,11.77
2022-10-15T15:20:33.441Z,15.23
2022-10-15T15:23:37.523Z,12.93
2022-10-15T15:26:40.041Z,21.60
2022-10-15T15:29:43.092Z,14.30
2022-10-15T15:33:03.669Z,12.00
2022-10-15T15:36:10.647Z,14.67
2022-10-15T15:39:14.773Z,29.53
2022-10-15T15:42:19.406Z,14.07
2022-10-15T15:45:23.705Z,15.30
2022-10-15T15:48:26.232Z,17.53
2022-10-15T15:51:31.801Z,29.07
2022-10-15T15:54:35.732Z,30.50
2022-10-15T15:57:38.804Z,28.53
2022-10-15T16:00:41.299Z,15.60
2022-10-15T16:03:43.781Z,16.70
2022-10-15T16:06:48.697Z,15.73
2022-10-15T16:09:52.529Z,19.40
2022-10-15T16:12:56.196Z,15.27
2022-10-15T16:15:59.110Z,19.67
2022-10-15T16:19:01.592Z,15.13
2022-10-15T16:22:04.110Z,21.00
2022-10-15T16:25:09.441Z,31.47
2022-10-15T16:28:12.238Z,24.37
2022-10-15T16:31:16.669Z,30.03
2022-10-15T16:34:19.136Z,20.30
2022-10-15T16:37:21.655Z,25.63
2022-10-15T16:40:25.512Z,29.63
2022-10-15T16:43:28.116Z,72.97
2022-10-15T16:46:30.611Z,63.77
2022-10-15T16:49:33.088Z,42.97
2022-10-15T16:52:35.902Z,12.87
2022-10-15T16:55:39.698Z,17.50
2022-10-15T16:58:42.589Z,19.80
2022-10-15T17:01:45.116Z,19.83
2022-10-15T17:04:47.658Z,17.57
2022-10-15T17:07:50.160Z,12.73
2022-10-15T17:10:53.997Z,10.03
2022-10-15T17:13:58.971Z,15.30
2022-10-15T17:17:01.449Z,11.27
2022-10-15T17:20:03.939Z,13.00
2022-10-15T17:23:06.427Z,8.47
2022-10-15T17:26:12.167Z,7.70
2022-10-15T17:29:19.801Z,8.63
2022-10-15T17:32:22.497Z,9.80
2022-10-15T17:35:25.577Z,8.53
2022-10-15T17:38:28.048Z,9.67
2022-10-15T17:41:32.434Z,10.83
2022-10-15T17:44:34.919Z,9.80
2022-10-15T17:47:38.455Z,12.87
2022-10-15T17:50:45.241Z,10.77
2022-10-15T17:53:50.653Z,13.47
2022-10-15T17:56:54.500Z,6.73
2022-10-15T17:59:57.022Z,6.40
2022-10-15T18:02:59.510Z,8.97
2022-10-15T18:06:07.768Z,9.17
2022-10-15T18:09:10.250Z,9.10
2022-10-15T18:12:14.167Z,8.53
2022-10-15T18:15:16.703Z,5.50
2022-10-15T18:18:19.226Z,5.70
2022-10-15T18:21:23.994Z,7.57
2022-10-15T18:24:26.552Z,7.07
2022-10-15T18:27:30.372Z,6.07
2022-10-15T18:30:32.845Z,10.63
2022-10-15T18:33:39.750Z,5.10
2022-10-15T18:36:43.489Z,6.33
2022-10-15T18:39:46.177Z,6.97
2022-10-15T18:42:50.138Z,7.57
2022-10-15T18:45:52.635Z,7.17
2022-10-15T18:48:55.716Z,8.27
2022-10-15T18:52:00.420Z,7.07
2022-10-15T18:55:09.929Z,11.03
2022-10-15T18:58:13.742Z,16.47
2022-10-15T19:01:27.424Z,11.90
2022-10-15T19:04:29.965Z,13.30
2022-10-15T19:07:32.614Z,10.07
2022-10-15T19:10:35.126Z,10.60
2022-10-15T19:13:38.960Z,21.53
2022-10-15T19:16:41.433Z,25.77
2022-10-15T19:19:48.312Z,11.03
2022-10-15T19:22:50.803Z,7.77
2022-10-15T19:25:53.319Z,16.03
2022-10-15T19:28:57.426Z,8.00
2022-10-15T19:31:59.974Z,12.90
2022-10-15T19:35:03.629Z,14.60
2022-10-15T19:38:06.430Z,9.73
2022-10-15T19:41:08.923Z,19.80
2022-10-15T19:44:13.932Z,13.93
2022-10-15T19:47:19.504Z,13.10
2022-10-15T19:50:21.959Z,10.73
2022-10-15T19:53:24.454Z,7.83
2022-10-15T19:56:28.070Z,7.97
2022-10-15T19:59:31.869Z,12.03
2022-10-15T20:02:34.374Z,5.50
2022-10-15T20:05:36.858Z,6.97
2022-10-15T20:08:39.354Z,5.33
2022-10-15T20:11:42.237Z,7.23
2022-10-15T20:14:46.077Z,11.73
2022-10-15T20:17:48.624Z,7.57
2022-10-15T20:20:51.138Z,5.93
2022-10-15T20:23:53.618Z,5.10
2022-10-15T20:26:56.092Z,8.70
2022-10-15T20:29:59.911Z,5.73
2022-10-15T20:33:02.418Z,4.77
2022-10-15T20:36:06.234Z,5.43
2022-10-15T20:39:08.890Z,5.50
2022-10-15T20:42:11.417Z,15.23
2022-10-15T20:45:15.323Z,21.17
2022-10-15T20:48:21.558Z,11.23
2022-10-15T20:51:27.659Z,8.90
2022-10-15T20:54:31.618Z,19.80
2022-10-15T20:57:34.584Z,14.63
2022-10-15T21:00:38.462Z,8.83
2022-10-15T21:03:40.959Z,11.97
2022-10-15T21:06:43.501Z,10.60
2022-10-15T21:09:46.034Z,7.43
2022-10-15T21:12:48.517Z,7.17
2022-10-15T21:15:58.389Z,10.27
2022-10-15T21:19:00.881Z,7.50
2022-10-15T21:22:03.358Z,7.10
2022-10-15T21:25:06.925Z,16.77
2022-10-15T21:28:09.393Z,15.07
2022-10-15T21:31:15.527Z,7.50
2022-10-15T21:34:19.979Z,9.17
2022-10-15T21:37:22.580Z,32.73
2022-10-15T21:40:25.287Z,69.47
2022-10-15T21:43:28.934Z,9.57
2022-10-15T21:46:33.166Z,7.53
2022-10-15T21:49:35.664Z,9.13
2022-10-15T21:52:38.141Z,8.33
2022-10-15T21:55:40.711Z,9.60
2022-10-15T21:58:43.297Z,12.57
2022-10-15T22:01:47.149Z,8.93
2022-10-15T22:04:49.719Z,9.37
2022-10-15T22:07:52.258Z,6.73
2022-10-15T22:10:55.175Z,9.87
2022-10-15T22:13:59.276Z,8.67
2022-10-15T22:17:03.129Z,5.90
2022-10-15T22:20:06.552Z,7.17
2022-10-15T22:23:09.101Z,6.07
2022-10-15T22:26:12.128Z,6.70
2022-10-15T22:29:19.398Z,9.07
2022-10-15T22:32:23.635Z,4.90
2022-10-15T22:35:26.383Z,12.90
2022-10-15T22:38:29.054Z,17.93
2022-10-15T22:41:33.226Z,12.33
2022-10-15T22:44:35.971Z,10.47
2022-10-15T22:47:39.805Z,7.87
2022-10-15T22:50:42.365Z,14.23
2022-10-15T22:53:44.935Z,9.80
2022-10-15T22:56:47.408Z,10.77
2022-10-15T22:59:55.856Z,11.23
2022-10-15T23:03:02.466Z,13.30
2022-10-15T23:06:05.560Z,17.40
2022-10-15T23:09:08.817Z,6.40
2022-10-15T23:12:11.293Z,8.23
2022-10-15T23:15:13.791Z,10.70
2022-10-15T23:18:17.672Z,18.73
2022-10-15T23:21:26.382Z,31.47
2022-10-15T23:24:29.893Z,8.57
2022-10-15T23:27:32.427Z,14.47
2022-10-15T23:30:34.896Z,10.47
2022-10-15T23:33:38.716Z,10.13
2022-10-15T23:36:41.228Z,9.33
2022-10-15T23:39:43.724Z,10.27
2022-10-15T23:42:46.261Z,12.77
2022-10-15T23:45:48.744Z,12.77
2022-10-15T23:48:52.732Z,14.53
2022-10-15T23:51:55.244Z,9.80
2022-10-15T23:54:57.712Z,10.90
2022-10-15T23:58:00.194Z,12.17
